Ashburn Park, Illinois
Current Conditions -  °F | °C
As of 7:36 AM on Friday 24 Oct 2014 (Local Time) from KMDW Reporting Station
Overcast Overcast  
Wind Chill: 55°   Ceiling: 3300
Heat Index: 55°   Visibility: 10mi
Dew Point: 47°   Wind: 6mph
Humidity: 74%   Direction: 230°SW
Pressure: 30.06"   Gusts: NA
Location:  41.7473°N, 87.7132°W
Report Text: KMDW 241236Z 23005KT 10SM OVC033 13/08 A3006 RMK AO2 T01280083
Loading
Personal Weather Stations






























Interactive Weather Map New forecast layout! Learn more

10-Day Weather Forecast

Advertisements
Track Severe Weather on mobile